(°C)
(°C)
-4°
-4°
-5°
-5°
-6°
-6°
-6°
J
J
JJV
JJV
J
J
J
(km/h)
24-35
25-40
26-43
27-44
28-46
28-47
28-47
(mm)
0
0
0
0.9
0.9
0.9
0.9
(%)
22
45
82
98
98
98
98

Sluneční výška

/ 24.8°
sun-icon
UV 1
07:15
17:33
Ubývající měsíc (190°)
17:58
07:47

METAR pro 53.5°S 50.15°V (UWWW)

Čas Podmínky Teplota/
Rosný bod
Vítr Viditelnost Počasí Oblaky Tlak Změna Nezpracované
MVFR 3°C / -1°C 210º 14kt >10km - Broken Clouds 1600ft 1013 No Significant change. Runway 15: Damp, 51-100% contamination with <1mm, friction coefficient 0.55. UWWW 210700Z 21007MPS 9999 BKN016 03/M01 Q1013 R15/190055 NOSIG RMK QFE748/0998
MVFR 3°C / -2°C 210º 14kt >10km - Broken Clouds 2100ft 1014 No Significant change. Runway 15: Damp, 51-100% contamination with <1mm, friction coefficient 0.55. UWWW 210630Z 21007MPS 9999 BKN021 03/M02 Q1014 R15/190055 NOSIG RMK QFE749/0999
VFR 3°C / -2°C 210º 14kt >10km - Scattered Clouds 3300ft 1014 No Significant change. Runway 15: Damp, 51-100% contamination with <1mm, friction coefficient 0.55. UWWW 210600Z 21007MPS 9999 SCT033 03/M02 Q1014 R15/190055 NOSIG RMK QFE749/0999
VFR 3°C / -2°C 210º 8kt >10km - Scattered Clouds 3300ft 1015 No Significant change. Runway 15: Damp, 51-100% contamination with <1mm, friction coefficient 0.55. UWWW 210530Z 21004MPS 9999 SCT033 03/M02 Q1015 R15/190055 NOSIG RMK QFE750/1000
VFR 2°C / -2°C 200º 8kt >10km - Scattered Clouds 3300ft 1015 No Significant change. Runway 15: Damp, 51-100% contamination with <1mm, friction coefficient 0.55. UWWW 210500Z 20004MPS 9999 SCT033 02/M02 Q1015 R15/190055 NOSIG RMK QFE750/1000
VFR 2°C / -2°C 200º 6kt >10km - Scattered Clouds 3300ft 1016 No Significant change. Runway 15: Damp, 51-100% contamination with <1mm, friction coefficient 0.55. UWWW 210430Z 20003MPS 9999 SCT033 02/M02 Q1016 R15/190055 NOSIG RMK QFE750/1000
VFR 1°C / -3°C 210º 8kt >10km - Scattered Clouds 3300ft 1016 No Significant change. Runway 15: Damp, 51-100% contamination with <1mm, friction coefficient 0.55. UWWW 210400Z 21004MPS 9999 SCT033 01/M03 Q1016 R15/190055 NOSIG RMK QFE750/1001
VFR 0°C / -4°C 230º 8kt >10km - Scattered Clouds 3300ft 1016 No Significant change. Runway 15: Damp, 51-100% contamination with <1mm, friction coefficient 0.55. UWWW 210330Z 23004MPS 9999 SCT033 00/M04 Q1016 R15/190055 NOSIG RMK QFE751/1001
VFR 0°C / -4°C 220º 8kt >10km - Scattered Clouds 3300ft 1017 No Significant change. Runway 15: Damp, 51-100% contamination with <1mm, friction coefficient 0.55. UWWW 210300Z 22004MPS 9999 SCT033 00/M04 Q1017 R15/190055 NOSIG RMK QFE751/1001
VFR 0°C / -3°C 210º 6kt >10km - Scattered Clouds 3300ft 1017 No Significant change. Runway 15: Damp, 51-100% contamination with <1mm, friction coefficient 0.55. UWWW 210230Z 21003MPS 9999 SCT033 00/M03 Q1017 R15/190055 NOSIG RMK QFE751/1002
VFR 0°C / -3°C 190º 6kt >10km - Scattered Clouds 3300ft 1017 No Significant change. Runway 15: Damp, 51-100% contamination with <1mm, friction coefficient 0.55. UWWW 210200Z 19003MPS 9999 SCT033 00/M03 Q1017 R15/190055 NOSIG RMK QFE751/1002
VFR 0°C / -3°C 220º 6kt >10km - Few Clouds 3300ft 1017 No Significant change. Runway 15: Damp, 51-100% contamination with <1mm, friction coefficient 0.55. UWWW 210130Z 22003MPS 9999 FEW033 M00/M03 Q1017 R15/190055 NOSIG RMK QFE751/1002
VFR -1°C / -3°C 230º 6kt >10km - Few Clouds 3300ft 1017 No Significant change. Runway 15: Damp, 51-100% contamination with <1mm, friction coefficient 0.55. UWWW 210100Z 23003MPS 9999 FEW033 M01/M03 Q1017 R15/190055 NOSIG RMK QFE751/1002
VFR -2°C / -4°C 230º 4kt >10km - Few Clouds 3300ft 1017 No Significant change. Runway 33: Damp, 51-100% contamination with <1mm, friction coefficient 0.55. UWWW 210030Z 23002MPS 9999 FEW033 M02/M04 Q1017 R33/190055 NOSIG RMK QFE752/1003
VFR -3°C / -5°C 240º 4kt >10km - Few Clouds 3300ft 1018 No Significant change. Runway 33: Damp, 51-100% contamination with <1mm, friction coefficient 0.55. UWWW 210000Z 24002MPS 9999 FEW033 M03/M05 Q1018 R33/190055 NOSIG RMK QFE753/1004
VFR -2°C / -4°C 240º 4kt >10km - Scattered Clouds 3300ft 1018 No Significant change. Runway 33: Damp, 51-100% contamination with <1mm, friction coefficient 0.55. UWWW 202330Z 24002MPS 9999 SCT033 M02/M04 Q1018 R33/190055 NOSIG RMK QFE753/1004
VFR -3°C / -5°C 240º 4kt >10km - Scattered Clouds 3300ft 1018 No Significant change. Runway 33: Damp, 51-100% contamination with <1mm, friction coefficient 0.55. UWWW 202300Z 24002MPS 9999 SCT033 M03/M05 Q1018 R33/190055 NOSIG RMK QFE753/1004
VFR 0°C / -2°C 300º 4kt >10km - Scattered Clouds 3300ft 1018 No Significant change. Runway 33: Damp, 51-100% contamination with <1mm, friction coefficient 0.55. UWWW 202230Z 30002MPS 9999 SCT033 00/M02 Q1018 R33/190055 NOSIG RMK QFE753/1004
VFR -2°C / -4°C 270º variable 240º to 300º 4kt >10km - Scattered Clouds 3300ft 1018 No Significant change. Runway 33: Damp, 51-100% contamination with <1mm, friction coefficient 0.55. UWWW 202200Z 27002MPS 240V300 9999 SCT033 M02/M04 Q1018 R33/190055 NOSIG RMK QFE753/1004
VFR -2°C / -4°C 230º 2kt >10km - Clouds and Visibility OK 1018 No Significant change. Runway 33: Damp, 51-100% contamination with <1mm, friction coefficient 0.55. UWWW 202130Z 23001MPS CAVOK M02/M04 Q1018 R33/190055 NOSIG RMK QFE753/1004
VFR 1°C / -2°C 260º variable 220º to 310º 4kt >10km - Clouds and Visibility OK 1018 No Significant change. Runway 33: Damp, 51-100% contamination with <1mm, friction coefficient 0.55. UWWW 202100Z 26002MPS 220V310 CAVOK 01/M02 Q1018 R33/190055 NOSIG RMK QFE752/1003
VFR 1°C / -2°C 280º variable 260º to 320º 4kt >10km - Clouds and Visibility OK 1017 No Significant change. Runway 33: Damp, 51-100% contamination with <1mm, friction coefficient 0.55. UWWW 202030Z 28002MPS 260V320 CAVOK 01/M02 Q1017 R33/190055 NOSIG RMK QFE752/1003
VFR 1°C / -1°C 280º 8kt >10km - Clouds and Visibility OK 1017 No Significant change. Runway 33: Damp, 51-100% contamination with <1mm, friction coefficient 0.55. UWWW 202000Z 28004MPS CAVOK 01/M01 Q1017 R33/190055 NOSIG RMK QFE752/1003
VFR 1°C / -1°C 280º variable 250º to 320º 6kt >10km - Few Clouds 3300ft 1018 No Significant change. Runway 33: Damp, 51-100% contamination with <1mm, friction coefficient 0.55. UWWW 201930Z 28003MPS 250V320 9999 FEW033 01/M01 Q1018 R33/190055 NOSIG RMK QFE752/1003

MVFR

3°C / -1°C

[Víc]
Vítr 210º 14kt
Viditelnost >10km
Počasí -
Oblaky Broken Clouds 1600ft
Tlak 1013
Změna No Significant change. Runway 15: Damp, 51-100% contamination with <1mm, friction coefficient 0.55.
Nezpracované UWWW 210700Z 21007MPS 9999 BKN016 03/M01 Q1013 R15/190055 NOSIG RMK QFE748/0998

MVFR

3°C / -2°C

[Víc]
Vítr 210º 14kt
Viditelnost >10km
Počasí -
Oblaky Broken Clouds 2100ft
Tlak 1014
Změna No Significant change. Runway 15: Damp, 51-100% contamination with <1mm, friction coefficient 0.55.
Nezpracované UWWW 210630Z 21007MPS 9999 BKN021 03/M02 Q1014 R15/190055 NOSIG RMK QFE749/0999

VFR

3°C / -2°C

[Víc]
Vítr 210º 14kt
Viditelnost >10km
Počasí -
Oblaky Scattered Clouds 3300ft
Tlak 1014
Změna No Significant change. Runway 15: Damp, 51-100% contamination with <1mm, friction coefficient 0.55.
Nezpracované UWWW 210600Z 21007MPS 9999 SCT033 03/M02 Q1014 R15/190055 NOSIG RMK QFE749/0999

VFR

3°C / -2°C

[Víc]
Vítr 210º 8kt
Viditelnost >10km
Počasí -
Oblaky Scattered Clouds 3300ft
Tlak 1015
Změna No Significant change. Runway 15: Damp, 51-100% contamination with <1mm, friction coefficient 0.55.
Nezpracované UWWW 210530Z 21004MPS 9999 SCT033 03/M02 Q1015 R15/190055 NOSIG RMK QFE750/1000

VFR

2°C / -2°C

[Víc]
Vítr 200º 8kt
Viditelnost >10km
Počasí -
Oblaky Scattered Clouds 3300ft
Tlak 1015
Změna No Significant change. Runway 15: Damp, 51-100% contamination with <1mm, friction coefficient 0.55.
Nezpracované UWWW 210500Z 20004MPS 9999 SCT033 02/M02 Q1015 R15/190055 NOSIG RMK QFE750/1000

VFR

2°C / -2°C

[Víc]
Vítr 200º 6kt
Viditelnost >10km
Počasí -
Oblaky Scattered Clouds 3300ft
Tlak 1016
Změna No Significant change. Runway 15: Damp, 51-100% contamination with <1mm, friction coefficient 0.55.
Nezpracované UWWW 210430Z 20003MPS 9999 SCT033 02/M02 Q1016 R15/190055 NOSIG RMK QFE750/1000

VFR

1°C / -3°C

[Víc]
Vítr 210º 8kt
Viditelnost >10km
Počasí -
Oblaky Scattered Clouds 3300ft
Tlak 1016
Změna No Significant change. Runway 15: Damp, 51-100% contamination with <1mm, friction coefficient 0.55.
Nezpracované UWWW 210400Z 21004MPS 9999 SCT033 01/M03 Q1016 R15/190055 NOSIG RMK QFE750/1001

VFR

0°C / -4°C

[Víc]
Vítr 230º 8kt
Viditelnost >10km
Počasí -
Oblaky Scattered Clouds 3300ft
Tlak 1016
Změna No Significant change. Runway 15: Damp, 51-100% contamination with <1mm, friction coefficient 0.55.
Nezpracované UWWW 210330Z 23004MPS 9999 SCT033 00/M04 Q1016 R15/190055 NOSIG RMK QFE751/1001

VFR

0°C / -4°C

[Víc]
Vítr 220º 8kt
Viditelnost >10km
Počasí -
Oblaky Scattered Clouds 3300ft
Tlak 1017
Změna No Significant change. Runway 15: Damp, 51-100% contamination with <1mm, friction coefficient 0.55.
Nezpracované UWWW 210300Z 22004MPS 9999 SCT033 00/M04 Q1017 R15/190055 NOSIG RMK QFE751/1001

VFR

0°C / -3°C

[Víc]
Vítr 210º 6kt
Viditelnost >10km
Počasí -
Oblaky Scattered Clouds 3300ft
Tlak 1017
Změna No Significant change. Runway 15: Damp, 51-100% contamination with <1mm, friction coefficient 0.55.
Nezpracované UWWW 210230Z 21003MPS 9999 SCT033 00/M03 Q1017 R15/190055 NOSIG RMK QFE751/1002

VFR

0°C / -3°C

[Víc]
Vítr 190º 6kt
Viditelnost >10km
Počasí -
Oblaky Scattered Clouds 3300ft
Tlak 1017
Změna No Significant change. Runway 15: Damp, 51-100% contamination with <1mm, friction coefficient 0.55.
Nezpracované UWWW 210200Z 19003MPS 9999 SCT033 00/M03 Q1017 R15/190055 NOSIG RMK QFE751/1002

VFR

0°C / -3°C

[Víc]
Vítr 220º 6kt
Viditelnost >10km
Počasí -
Oblaky Few Clouds 3300ft
Tlak 1017
Změna No Significant change. Runway 15: Damp, 51-100% contamination with <1mm, friction coefficient 0.55.
Nezpracované UWWW 210130Z 22003MPS 9999 FEW033 M00/M03 Q1017 R15/190055 NOSIG RMK QFE751/1002

VFR

-1°C / -3°C

[Víc]
Vítr 230º 6kt
Viditelnost >10km
Počasí -
Oblaky Few Clouds 3300ft
Tlak 1017
Změna No Significant change. Runway 15: Damp, 51-100% contamination with <1mm, friction coefficient 0.55.
Nezpracované UWWW 210100Z 23003MPS 9999 FEW033 M01/M03 Q1017 R15/190055 NOSIG RMK QFE751/1002

VFR

-2°C / -4°C

[Víc]
Vítr 230º 4kt
Viditelnost >10km
Počasí -
Oblaky Few Clouds 3300ft
Tlak 1017
Změna No Significant change. Runway 33: Damp, 51-100% contamination with <1mm, friction coefficient 0.55.
Nezpracované UWWW 210030Z 23002MPS 9999 FEW033 M02/M04 Q1017 R33/190055 NOSIG RMK QFE752/1003

VFR

-3°C / -5°C

[Víc]
Vítr 240º 4kt
Viditelnost >10km
Počasí -
Oblaky Few Clouds 3300ft
Tlak 1018
Změna No Significant change. Runway 33: Damp, 51-100% contamination with <1mm, friction coefficient 0.55.
Nezpracované UWWW 210000Z 24002MPS 9999 FEW033 M03/M05 Q1018 R33/190055 NOSIG RMK QFE753/1004

VFR

-2°C / -4°C

[Víc]
Vítr 240º 4kt
Viditelnost >10km
Počasí -
Oblaky Scattered Clouds 3300ft
Tlak 1018
Změna No Significant change. Runway 33: Damp, 51-100% contamination with <1mm, friction coefficient 0.55.
Nezpracované UWWW 202330Z 24002MPS 9999 SCT033 M02/M04 Q1018 R33/190055 NOSIG RMK QFE753/1004

VFR

-3°C / -5°C

[Víc]
Vítr 240º 4kt
Viditelnost >10km
Počasí -
Oblaky Scattered Clouds 3300ft
Tlak 1018
Změna No Significant change. Runway 33: Damp, 51-100% contamination with <1mm, friction coefficient 0.55.
Nezpracované UWWW 202300Z 24002MPS 9999 SCT033 M03/M05 Q1018 R33/190055 NOSIG RMK QFE753/1004

VFR

0°C / -2°C

[Víc]
Vítr 300º 4kt
Viditelnost >10km
Počasí -
Oblaky Scattered Clouds 3300ft
Tlak 1018
Změna No Significant change. Runway 33: Damp, 51-100% contamination with <1mm, friction coefficient 0.55.
Nezpracované UWWW 202230Z 30002MPS 9999 SCT033 00/M02 Q1018 R33/190055 NOSIG RMK QFE753/1004

VFR

-2°C / -4°C

[Víc]
Vítr 270º variable 240º to 300º 4kt
Viditelnost >10km
Počasí -
Oblaky Scattered Clouds 3300ft
Tlak 1018
Změna No Significant change. Runway 33: Damp, 51-100% contamination with <1mm, friction coefficient 0.55.
Nezpracované UWWW 202200Z 27002MPS 240V300 9999 SCT033 M02/M04 Q1018 R33/190055 NOSIG RMK QFE753/1004

VFR

-2°C / -4°C

[Víc]
Vítr 230º 2kt
Viditelnost >10km
Počasí -
Oblaky Clouds and Visibility OK
Tlak 1018
Změna No Significant change. Runway 33: Damp, 51-100% contamination with <1mm, friction coefficient 0.55.
Nezpracované UWWW 202130Z 23001MPS CAVOK M02/M04 Q1018 R33/190055 NOSIG RMK QFE753/1004

VFR

1°C / -2°C

[Víc]
Vítr 260º variable 220º to 310º 4kt
Viditelnost >10km
Počasí -
Oblaky Clouds and Visibility OK
Tlak 1018
Změna No Significant change. Runway 33: Damp, 51-100% contamination with <1mm, friction coefficient 0.55.
Nezpracované UWWW 202100Z 26002MPS 220V310 CAVOK 01/M02 Q1018 R33/190055 NOSIG RMK QFE752/1003

VFR

1°C / -2°C

[Víc]
Vítr 280º variable 260º to 320º 4kt
Viditelnost >10km
Počasí -
Oblaky Clouds and Visibility OK
Tlak 1017
Změna No Significant change. Runway 33: Damp, 51-100% contamination with <1mm, friction coefficient 0.55.
Nezpracované UWWW 202030Z 28002MPS 260V320 CAVOK 01/M02 Q1017 R33/190055 NOSIG RMK QFE752/1003

VFR

1°C / -1°C

[Víc]
Vítr 280º 8kt
Viditelnost >10km
Počasí -
Oblaky Clouds and Visibility OK
Tlak 1017
Změna No Significant change. Runway 33: Damp, 51-100% contamination with <1mm, friction coefficient 0.55.
Nezpracované UWWW 202000Z 28004MPS CAVOK 01/M01 Q1017 R33/190055 NOSIG RMK QFE752/1003

VFR

1°C / -1°C

[Víc]
Vítr 280º variable 250º to 320º 6kt
Viditelnost >10km
Počasí -
Oblaky Few Clouds 3300ft
Tlak 1018
Změna No Significant change. Runway 33: Damp, 51-100% contamination with <1mm, friction coefficient 0.55.
Nezpracované UWWW 201930Z 28003MPS 250V320 9999 FEW033 01/M01 Q1018 R33/190055 NOSIG RMK QFE752/1003

TAF pro 53.5°S 50.15°V (UWWW)

From till


Maximum Temperature 7ºC on . Minimum Temperature 3ºC on .
From till Wind 220º 16kt. Gust 25kt. Visibility 3000m. Light Rain . Broken Clouds 1100ft.
Temporarly from till Wind 190º 25kt. Gust 35kt. Visibility 804.670m. Heavy Showers Rain Heavy Showers Snow . Broken Clouds 400ft. Broken Clouds 1600ft.
Temporarly from till Wind 250º 25kt. Gust 35kt. Light Showers Rain . Broken Clouds 700ft. Broken Clouds 1600ft.
From till Wind 230º 17kt. Gust 29kt. Visibility 6000m. Light Rain . Broken Clouds 1600ft.

Nezpracované: TAF UWWW 210458Z 2106/2206 22008G13MPS 3000 -RA BKN011 TX07/2205Z TN03/2106Z TEMPO 2106/2113 19013G18MPS 0800 +SHRASN BKN004 BKN016CB TEMPO 2113/2123 25013G18MPS -SHRA BKN007 BKN016CB FM212300 23009G15MPS 6000 -RA BKN016

Aktuální snímky ze satelitu a srážky pro 53.5°S 50.15°V

Značka polohy je umístěna na 53.5°S 50.15°V. [Víc]

Satelitní snímek v reálném čase kombinuje viditelné světlo během dne s infračerveným zářením během noci. V noci není obraz tmavý, protože infračervené záření dokáže detekovat teplotní rozdíly. Nízká oblačnost a mlha se bohužel těžko odlišují od pozemních teplot, a proto mohou být během noci téměř neviditelné. Satelitní snímky z Meteosatu pro Evropu jsou aktualizovány v reálném čase každých 5 minut. Snímky z GOES-16/GOES-17 (Severní a Jižní Amerika) a Himawari (Asie) jsou aktualizovány) každých 10 minut.

Copyright 2021 EUMETSAT / meteoblue. / Copyright 2021 meteoblue

Radar a krátkodobá předpověď srážek pro 53.5°S 50.15°V

Mrholení
Slabé
Moderate
Silné
Very Heavy
Hail

Značka lokality je umístněna na 53.5°S 50.15°V. Tato animace ukazuje srážky zaznamenané radarem za poslední hodinu a také 1h předpověď. Drizzle or light snow fall might be invisible for the radar. Precipitation intensity is colour coded, ranging from light blue to orange.